sensor_id;sensor_type;location;lat;lon;timestamp;temperature;humidity
7218;DHT22;3650;53.580;10.094;2022-10-18T00:02:05;16.90;99.90
7218;DHT22;3650;53.580;10.094;2022-10-18T00:04:31;16.90;99.90
7218;DHT22;3650;53.580;10.094;2022-10-18T00:07:00;16.90;99.90
7218;DHT22;3650;53.580;10.094;2022-10-18T00:09:26;16.90;99.90
7218;DHT22;3650;53.580;10.094;2022-10-18T00:11:53;16.90;99.90
7218;DHT22;3650;53.580;10.094;2022-10-18T00:14:20;16.90;99.90
7218;DHT22;3650;53.580;10.094;2022-10-18T00:16:47;16.90;99.90
7218;DHT22;3650;53.580;10.094;2022-10-18T00:19:14;16.90;99.90
7218;DHT22;3650;53.580;10.094;2022-10-18T00:21:41;16.90;99.90
7218;DHT22;3650;53.580;10.094;2022-10-18T00:24:09;16.90;99.90
7218;DHT22;3650;53.580;10.094;2022-10-18T00:26:36;16.90;99.90
7218;DHT22;3650;53.580;10.094;2022-10-18T00:29:04;16.90;99.90
7218;DHT22;3650;53.580;10.094;2022-10-18T00:31:32;16.90;99.90
7218;DHT22;3650;53.580;10.094;2022-10-18T00:34:01;16.90;99.90
7218;DHT22;3650;53.580;10.094;2022-10-18T00:36:30;16.80;99.90
7218;DHT22;3650;53.580;10.094;2022-10-18T00:38:58;16.80;99.90
7218;DHT22;3650;53.580;10.094;2022-10-18T00:41:28;16.80;99.90
7218;DHT22;3650;53.580;10.094;2022-10-18T00:43:57;16.80;99.90
7218;DHT22;3650;53.580;10.094;2022-10-18T00:46:26;16.80;99.90
7218;DHT22;3650;53.580;10.094;2022-10-18T00:48:55;16.80;99.90
7218;DHT22;3650;53.580;10.094;2022-10-18T00:51:26;16.80;99.90
7218;DHT22;3650;53.580;10.094;2022-10-18T00:53:53;16.80;99.90
7218;DHT22;3650;53.580;10.094;2022-10-18T00:56:20;16.80;99.90
7218;DHT22;3650;53.580;10.094;2022-10-18T00:58:50;16.80;99.90
7218;DHT22;3650;53.580;10.094;2022-10-18T01:01:17;16.80;99.90
7218;DHT22;3650;53.580;10.094;2022-10-18T01:03:44;16.80;99.90
7218;DHT22;3650;53.580;10.094;2022-10-18T01:06:11;16.80;99.90
7218;DHT22;3650;53.580;10.094;2022-10-18T01:08:46;16.80;99.90
7218;DHT22;3650;53.580;10.094;2022-10-18T01:11:35;16.80;99.90
7218;DHT22;3650;53.580;10.094;2022-10-18T01:14:16;16.80;99.90
7218;DHT22;3650;53.580;10.094;2022-10-18T01:16:50;16.80;99.90
7218;DHT22;3650;53.580;10.094;2022-10-18T01:19:42;16.70;99.90
7218;DHT22;3650;53.580;10.094;2022-10-18T01:22:15;16.70;99.90
7218;DHT22;3650;53.580;10.094;2022-10-18T01:25:01;16.70;99.90
7218;DHT22;3650;53.580;10.094;2022-10-18T01:27:43;16.70;99.90
7218;DHT22;3650;53.580;10.094;2022-10-18T01:33:21;16.70;99.90
7218;DHT22;3650;53.580;10.094;2022-10-18T01:35:53;16.70;99.90
7218;DHT22;3650;53.580;10.094;2022-10-18T01:38:24;16.70;99.90
7218;DHT22;3650;53.580;10.094;2022-10-18T01:40:52;16.70;99.90
7218;DHT22;3650;53.580;10.094;2022-10-18T01:43:20;16.70;99.90
7218;DHT22;3650;53.580;10.094;2022-10-18T01:45:48;16.60;99.90
7218;DHT22;3650;53.580;10.094;2022-10-18T01:48:18;16.60;99.90
7218;DHT22;3650;53.580;10.094;2022-10-18T01:50:45;16.60;99.90
7218;DHT22;3650;53.580;10.094;2022-10-18T01:53:27;16.60;99.90
7218;DHT22;3650;53.580;10.094;2022-10-18T01:56:16;16.60;99.90
7218;DHT22;3650;53.580;10.094;2022-10-18T01:58:53;16.50;99.90
7218;DHT22;3650;53.580;10.094;2022-10-18T02:01:28;16.50;99.90
7218;DHT22;3650;53.580;10.094;2022-10-18T02:04:04;16.50;99.90
7218;DHT22;3650;53.580;10.094;2022-10-18T02:06:35;16.50;99.90
7218;DHT22;3650;53.580;10.094;2022-10-18T02:09:08;16.50;99.90
7218;DHT22;3650;53.580;10.094;2022-10-18T02:11:37;16.50;99.90
7218;DHT22;3650;53.580;10.094;2022-10-18T02:14:08;16.50;99.90
7218;DHT22;3650;53.580;10.094;2022-10-18T02:16:39;16.50;99.90
7218;DHT22;3650;53.580;10.094;2022-10-18T02:19:11;16.50;99.90
7218;DHT22;3650;53.580;10.094;2022-10-18T02:21:41;16.40;99.90
7218;DHT22;3650;53.580;10.094;2022-10-18T02:24:09;16.40;99.90
7218;DHT22;3650;53.580;10.094;2022-10-18T02:26:38;16.40;99.90
7218;DHT22;3650;53.580;10.094;2022-10-18T02:29:05;16.30;99.90
7218;DHT22;3650;53.580;10.094;2022-10-18T02:31:36;16.30;99.90
7218;DHT22;3650;53.580;10.094;2022-10-18T02:34:11;16.30;99.90
7218;DHT22;3650;53.580;10.094;2022-10-18T02:36:43;16.30;99.90
7218;DHT22;3650;53.580;10.094;2022-10-18T02:39:12;16.30;99.90
7218;DHT22;3650;53.580;10.094;2022-10-18T02:41:41;16.20;99.90
7218;DHT22;3650;53.580;10.094;2022-10-18T02:44:08;16.20;99.90
7218;DHT22;3650;53.580;10.094;2022-10-18T02:46:35;16.10;99.90
7218;DHT22;3650;53.580;10.094;2022-10-18T02:49:02;16.20;99.90
7218;DHT22;3650;53.580;10.094;2022-10-18T02:51:31;16.20;99.90
7218;DHT22;3650;53.580;10.094;2022-10-18T02:53:57;16.10;99.90
7218;DHT22;3650;53.580;10.094;2022-10-18T02:56:24;16.10;99.90
7218;DHT22;3650;53.580;10.094;2022-10-18T02:58:51;16.10;99.90
7218;DHT22;3650;53.580;10.094;2022-10-18T03:01:18;16.00;99.90
7218;DHT22;3650;53.580;10.094;2022-10-18T03:03:45;16.10;99.90
7218;DHT22;3650;53.580;10.094;2022-10-18T03:06:12;16.10;99.90
7218;DHT22;3650;53.580;10.094;2022-10-18T03:08:40;16.10;99.90
7218;DHT22;3650;53.580;10.094;2022-10-18T03:11:06;16.10;99.90
7218;DHT22;3650;53.580;10.094;2022-10-18T03:13:33;16.10;99.90
7218;DHT22;3650;53.580;10.094;2022-10-18T03:16:00;16.10;99.90
7218;DHT22;3650;53.580;10.094;2022-10-18T03:18:27;16.20;99.90
7218;DHT22;3650;53.580;10.094;2022-10-18T03:20:53;16.20;99.90
7218;DHT22;3650;53.580;10.094;2022-10-18T03:23:21;16.20;99.90
7218;DHT22;3650;53.580;10.094;2022-10-18T03:25:49;16.10;99.90
7218;DHT22;3650;53.580;10.094;2022-10-18T03:28:15;16.20;99.90
7218;DHT22;3650;53.580;10.094;2022-10-18T03:30:42;16.10;99.90
7218;DHT22;3650;53.580;10.094;2022-10-18T03:33:09;16.20;99.90
7218;DHT22;3650;53.580;10.094;2022-10-18T03:35:36;16.10;99.90
7218;DHT22;3650;53.580;10.094;2022-10-18T03:38:02;16.10;99.90
7218;DHT22;3650;53.580;10.094;2022-10-18T03:40:29;16.10;99.90
7218;DHT22;3650;53.580;10.094;2022-10-18T03:42:58;16.10;99.90
7218;DHT22;3650;53.580;10.094;2022-10-18T03:45:24;16.10;99.90
7218;DHT22;3650;53.580;10.094;2022-10-18T03:47:51;16.00;99.90
7218;DHT22;3650;53.580;10.094;2022-10-18T03:50:18;16.00;99.90
7218;DHT22;3650;53.580;10.094;2022-10-18T03:52:45;16.10;99.90
7218;DHT22;3650;53.580;10.094;2022-10-18T03:55:11;16.00;99.90
7218;DHT22;3650;53.580;10.094;2022-10-18T03:57:38;16.00;99.90
7218;DHT22;3650;53.580;10.094;2022-10-18T04:00:07;16.00;99.90
7218;DHT22;3650;53.580;10.094;2022-10-18T04:02:35;16.00;99.90
7218;DHT22;3650;53.580;10.094;2022-10-18T04:05:01;16.00;99.90
7218;DHT22;3650;53.580;10.094;2022-10-18T04:07:28;16.00;99.90
7218;DHT22;3650;53.580;10.094;2022-10-18T04:09:55;16.00;99.90
7218;DHT22;3650;53.580;10.094;2022-10-18T04:12:22;16.00;99.90
7218;DHT22;3650;53.580;10.094;2022-10-18T04:14:49;16.00;99.90
7218;DHT22;3650;53.580;10.094;2022-10-18T04:17:17;16.00;99.90
7218;DHT22;3650;53.580;10.094;2022-10-18T04:19:43;16.00;99.90
7218;DHT22;3650;53.580;10.094;2022-10-18T04:22:10;16.00;99.90
7218;DHT22;3650;53.580;10.094;2022-10-18T04:24:37;15.90;99.90
7218;DHT22;3650;53.580;10.094;2022-10-18T04:27:05;15.90;99.90
7218;DHT22;3650;53.580;10.094;2022-10-18T04:29:32;15.90;99.90
7218;DHT22;3650;53.580;10.094;2022-10-18T04:31:59;15.90;99.90
7218;DHT22;3650;53.580;10.094;2022-10-18T04:34:27;15.90;99.90
7218;DHT22;3650;53.580;10.094;2022-10-18T04:36:54;15.90;99.90
7218;DHT22;3650;53.580;10.094;2022-10-18T04:39:21;15.90;99.90
7218;DHT22;3650;53.580;10.094;2022-10-18T04:41:47;15.90;99.90
7218;DHT22;3650;53.580;10.094;2022-10-18T04:44:14;15.90;99.90
7218;DHT22;3650;53.580;10.094;2022-10-18T04:46:41;15.90;99.90
7218;DHT22;3650;53.580;10.094;2022-10-18T04:49:08;15.90;99.90
7218;DHT22;3650;53.580;10.094;2022-10-18T04:51:36;15.90;99.90
7218;DHT22;3650;53.580;10.094;2022-10-18T04:54:03;15.90;99.90
7218;DHT22;3650;53.580;10.094;2022-10-18T04:56:31;15.90;99.90
7218;DHT22;3650;53.580;10.094;2022-10-18T04:58:58;15.90;99.90
7218;DHT22;3650;53.580;10.094;2022-10-18T05:01:25;15.90;99.90
7218;DHT22;3650;53.580;10.094;2022-10-18T05:03:52;15.90;99.90
7218;DHT22;3650;53.580;10.094;2022-10-18T05:06:19;15.90;99.90
7218;DHT22;3650;53.580;10.094;2022-10-18T05:08:47;15.90;99.90
7218;DHT22;3650;53.580;10.094;2022-10-18T05:11:14;15.90;99.90
7218;DHT22;3650;53.580;10.094;2022-10-18T05:13:41;15.90;99.90
7218;DHT22;3650;53.580;10.094;2022-10-18T05:16:08;15.90;99.90
7218;DHT22;3650;53.580;10.094;2022-10-18T05:18:35;15.90;99.90
7218;DHT22;3650;53.580;10.094;2022-10-18T05:21:02;15.90;99.90
7218;DHT22;3650;53.580;10.094;2022-10-18T05:23:29;16.00;99.90
7218;DHT22;3650;53.580;10.094;2022-10-18T05:26:01;16.00;99.90
7218;DHT22;3650;53.580;10.094;2022-10-18T05:28:28;16.00;99.90
7218;DHT22;3650;53.580;10.094;2022-10-18T05:30:59;16.00;99.90
7218;DHT22;3650;53.580;10.094;2022-10-18T05:33:26;16.00;99.90
7218;DHT22;3650;53.580;10.094;2022-10-18T05:35:53;16.00;99.90
7218;DHT22;3650;53.580;10.094;2022-10-18T05:38:20;16.00;99.90
7218;DHT22;3650;53.580;10.094;2022-10-18T05:40:47;16.00;99.90
7218;DHT22;3650;53.580;10.094;2022-10-18T05:43:16;15.90;99.90
7218;DHT22;3650;53.580;10.094;2022-10-18T05:45:46;16.00;99.90
7218;DHT22;3650;53.580;10.094;2022-10-18T05:48:13;16.00;99.90
7218;DHT22;3650;53.580;10.094;2022-10-18T05:50:40;16.00;99.90
7218;DHT22;3650;53.580;10.094;2022-10-18T05:53:07;16.00;99.90
7218;DHT22;3650;53.580;10.094;2022-10-18T05:55:34;16.00;99.90
7218;DHT22;3650;53.580;10.094;2022-10-18T05:58:01;15.90;99.90
7218;DHT22;3650;53.580;10.094;2022-10-18T06:00:30;15.90;99.90
7218;DHT22;3650;53.580;10.094;2022-10-18T06:02:57;15.90;99.90
7218;DHT22;3650;53.580;10.094;2022-10-18T06:05:24;15.90;99.90
7218;DHT22;3650;53.580;10.094;2022-10-18T06:07:51;15.90;99.90
7218;DHT22;3650;53.580;10.094;2022-10-18T06:10:17;15.90;99.90
7218;DHT22;3650;53.580;10.094;2022-10-18T06:12:44;15.90;99.90
7218;DHT22;3650;53.580;10.094;2022-10-18T06:15:11;15.90;99.90
7218;DHT22;3650;53.580;10.094;2022-10-18T06:17:40;15.90;99.90
7218;DHT22;3650;53.580;10.094;2022-10-18T06:20:09;15.90;99.90
7218;DHT22;3650;53.580;10.094;2022-10-18T06:22:36;15.90;99.90
7218;DHT22;3650;53.580;10.094;2022-10-18T06:25:03;15.80;99.90
7218;DHT22;3650;53.580;10.094;2022-10-18T06:27:30;15.80;99.90
7218;DHT22;3650;53.580;10.094;2022-10-18T06:29:58;15.80;99.90
7218;DHT22;3650;53.580;10.094;2022-10-18T06:32:25;15.80;99.90
7218;DHT22;3650;53.580;10.094;2022-10-18T06:34:53;15.80;99.90
7218;DHT22;3650;53.580;10.094;2022-10-18T06:37:20;15.80;99.90
7218;DHT22;3650;53.580;10.094;2022-10-18T06:39:47;15.70;99.90
7218;DHT22;3650;53.580;10.094;2022-10-18T06:42:13;15.70;99.90
7218;DHT22;3650;53.580;10.094;2022-10-18T06:44:40;15.70;99.90
7218;DHT22;3650;53.580;10.094;2022-10-18T06:47:07;15.70;99.90
7218;DHT22;3650;53.580;10.094;2022-10-18T06:49:34;15.70;99.90
7218;DHT22;3650;53.580;10.094;2022-10-18T06:52:02;15.70;99.90
7218;DHT22;3650;53.580;10.094;2022-10-18T06:54:29;15.70;99.90
7218;DHT22;3650;53.580;10.094;2022-10-18T06:56:56;15.70;99.90
7218;DHT22;3650;53.580;10.094;2022-10-18T06:59:23;15.70;99.90
7218;DHT22;3650;53.580;10.094;2022-10-18T07:01:50;15.70;99.90
7218;DHT22;3650;53.580;10.094;2022-10-18T07:04:16;15.70;99.90
7218;DHT22;3650;53.580;10.094;2022-10-18T07:06:43;15.70;99.90
7218;DHT22;3650;53.580;10.094;2022-10-18T07:09:11;15.70;99.90
7218;DHT22;3650;53.580;10.094;2022-10-18T07:11:38;15.70;99.90
7218;DHT22;3650;53.580;10.094;2022-10-18T07:14:05;15.70;99.90
7218;DHT22;3650;53.580;10.094;2022-10-18T07:16:32;15.60;99.90
7218;DHT22;3650;53.580;10.094;2022-10-18T07:18:59;15.60;99.90
7218;DHT22;3650;53.580;10.094;2022-10-18T07:21:26;15.60;99.90
7218;DHT22;3650;53.580;10.094;2022-10-18T07:23:53;15.60;99.90
7218;DHT22;3650;53.580;10.094;2022-10-18T07:26:23;15.60;99.90
7218;DHT22;3650;53.580;10.094;2022-10-18T07:28:52;15.60;99.90
7218;DHT22;3650;53.580;10.094;2022-10-18T07:31:20;15.60;99.90
7218;DHT22;3650;53.580;10.094;2022-10-18T07:33:48;15.60;99.90
7218;DHT22;3650;53.580;10.094;2022-10-18T07:36:14;15.60;99.90
7218;DHT22;3650;53.580;10.094;2022-10-18T07:38:41;15.60;99.90
7218;DHT22;3650;53.580;10.094;2022-10-18T07:41:10;15.60;99.90
7218;DHT22;3650;53.580;10.094;2022-10-18T07:43:42;15.60;99.90
7218;DHT22;3650;53.580;10.094;2022-10-18T07:46:10;15.60;99.90
7218;DHT22;3650;53.580;10.094;2022-10-18T07:48:37;15.70;99.90
7218;DHT22;3650;53.580;10.094;2022-10-18T07:51:04;15.70;99.90
7218;DHT22;3650;53.580;10.094;2022-10-18T07:53:31;15.70;99.90
7218;DHT22;3650;53.580;10.094;2022-10-18T07:56:00;15.70;99.90
7218;DHT22;3650;53.580;10.094;2022-10-18T07:58:27;15.70;99.90
7218;DHT22;3650;53.580;10.094;2022-10-18T08:00:55;15.70;99.90
7218;DHT22;3650;53.580;10.094;2022-10-18T08:03:22;15.80;99.90
7218;DHT22;3650;53.580;10.094;2022-10-18T08:05:53;15.80;99.90
7218;DHT22;3650;53.580;10.094;2022-10-18T08:08:21;15.80;99.90
7218;DHT22;3650;53.580;10.094;2022-10-18T08:10:48;15.80;99.90
7218;DHT22;3650;53.580;10.094;2022-10-18T08:13:15;15.90;99.90
7218;DHT22;3650;53.580;10.094;2022-10-18T08:15:42;15.90;99.90
7218;DHT22;3650;53.580;10.094;2022-10-18T08:18:10;15.90;99.90
7218;DHT22;3650;53.580;10.094;2022-10-18T08:20:41;15.90;99.90
7218;DHT22;3650;53.580;10.094;2022-10-18T08:23:09;15.90;99.90
7218;DHT22;3650;53.580;10.094;2022-10-18T08:25:35;15.90;99.90
7218;DHT22;3650;53.580;10.094;2022-10-18T08:28:03;15.90;99.90
7218;DHT22;3650;53.580;10.094;2022-10-18T08:30:29;15.80;99.90
7218;DHT22;3650;53.580;10.094;2022-10-18T08:32:56;15.80;99.90
7218;DHT22;3650;53.580;10.094;2022-10-18T08:35:24;15.90;99.90
7218;DHT22;3650;53.580;10.094;2022-10-18T08:37:51;15.80;99.90
7218;DHT22;3650;53.580;10.094;2022-10-18T08:40:18;15.80;99.90
7218;DHT22;3650;53.580;10.094;2022-10-18T08:42:55;15.80;99.90
7218;DHT22;3650;53.580;10.094;2022-10-18T08:45:24;15.80;99.90
7218;DHT22;3650;53.580;10.094;2022-10-18T08:47:54;15.80;99.90
7218;DHT22;3650;53.580;10.094;2022-10-18T08:50:27;15.80;99.90
7218;DHT22;3650;53.580;10.094;2022-10-18T08:52:58;15.80;99.90
7218;DHT22;3650;53.580;10.094;2022-10-18T08:55:29;15.80;99.90
7218;DHT22;3650;53.580;10.094;2022-10-18T08:58:01;15.80;99.90
7218;DHT22;3650;53.580;10.094;2022-10-18T09:00:30;15.80;99.90
7218;DHT22;3650;53.580;10.094;2022-10-18T09:03:22;15.80;99.90
7218;DHT22;3650;53.580;10.094;2022-10-18T09:05:55;15.80;99.90
7218;DHT22;3650;53.580;10.094;2022-10-18T09:08:49;15.80;99.90
7218;DHT22;3650;53.580;10.094;2022-10-18T09:11:32;15.80;99.90
7218;DHT22;3650;53.580;10.094;2022-10-18T09:14:27;15.80;99.90
7218;DHT22;3650;53.580;10.094;2022-10-18T09:17:04;15.80;99.90
7218;DHT22;3650;53.580;10.094;2022-10-18T09:19:49;15.80;99.90
7218;DHT22;3650;53.580;10.094;2022-10-18T09:22:37;15.80;99.90
7218;DHT22;3650;53.580;10.094;2022-10-18T09:25:09;15.80;99.90
7218;DHT22;3650;53.580;10.094;2022-10-18T09:27:51;15.80;99.90
7218;DHT22;3650;53.580;10.094;2022-10-18T09:30:25;15.80;99.90
7218;DHT22;3650;53.580;10.094;2022-10-18T09:33:02;15.90;99.90
7218;DHT22;3650;53.580;10.094;2022-10-18T09:35:38;15.90;99.90
7218;DHT22;3650;53.580;10.094;2022-10-18T09:38:12;15.90;99.90
7218;DHT22;3650;53.580;10.094;2022-10-18T09:40:47;15.90;99.90
7218;DHT22;3650;53.580;10.094;2022-10-18T09:43:19;16.00;99.90
7218;DHT22;3650;53.580;10.094;2022-10-18T09:45:47;16.00;99.90
7218;DHT22;3650;53.580;10.094;2022-10-18T09:48:19;16.00;99.90
7218;DHT22;3650;53.580;10.094;2022-10-18T09:50:50;16.00;99.70
7218;DHT22;3650;53.580;10.094;2022-10-18T09:53:26;16.10;99.50
7218;DHT22;3650;53.580;10.094;2022-10-18T09:56:01;16.10;99.40
7218;DHT22;3650;53.580;10.094;2022-10-18T09:58:38;16.10;99.10
7218;DHT22;3650;53.580;10.094;2022-10-18T10:01:06;16.20;99.10
7218;DHT22;3650;53.580;10.094;2022-10-18T10:03:33;16.20;99.30
7218;DHT22;3650;53.580;10.094;2022-10-18T10:06:02;16.20;99.30
7218;DHT22;3650;53.580;10.094;2022-10-18T10:08:42;16.30;98.60
7218;DHT22;3650;53.580;10.094;2022-10-18T10:11:28;16.30;96.50
7218;DHT22;3650;53.580;10.094;2022-10-18T10:13:57;16.30;96.10
7218;DHT22;3650;53.580;10.094;2022-10-18T10:16:25;16.40;96.70
7218;DHT22;3650;53.580;10.094;2022-10-18T10:18:53;16.40;97.20
7218;DHT22;3650;53.580;10.094;2022-10-18T10:21:20;16.40;97.50
7218;DHT22;3650;53.580;10.094;2022-10-18T10:23:52;16.40;97.20
7218;DHT22;3650;53.580;10.094;2022-10-18T10:26:22;16.40;96.60
7218;DHT22;3650;53.580;10.094;2022-10-18T10:28:49;16.40;94.80
7218;DHT22;3650;53.580;10.094;2022-10-18T10:31:20;16.50;95.30
7218;DHT22;3650;53.580;10.094;2022-10-18T10:33:58;16.40;95.60
7218;DHT22;3650;53.580;10.094;2022-10-18T10:36:25;16.40;95.60
7218;DHT22;3650;53.580;10.094;2022-10-18T10:39:10;16.50;94.80
7218;DHT22;3650;53.580;10.094;2022-10-18T10:41:39;16.50;94.70
7218;DHT22;3650;53.580;10.094;2022-10-18T10:44:14;16.50;95.10
7218;DHT22;3650;53.580;10.094;2022-10-18T10:46:43;16.60;95.10
7218;DHT22;3650;53.580;10.094;2022-10-18T10:49:17;16.60;95.30
7218;DHT22;3650;53.580;10.094;2022-10-18T10:51:46;16.60;95.50
7218;DHT22;3650;53.580;10.094;2022-10-18T10:54:21;16.60;95.30
7218;DHT22;3650;53.580;10.094;2022-10-18T10:56:53;16.60;95.40
7218;DHT22;3650;53.580;10.094;2022-10-18T10:59:22;16.60;94.90
7218;DHT22;3650;53.580;10.094;2022-10-18T11:02:11;16.60;95.20
7218;DHT22;3650;53.580;10.094;2022-10-18T11:04:43;16.70;93.00
7218;DHT22;3650;53.580;10.094;2022-10-18T11:07:13;16.70;92.30
7218;DHT22;3650;53.580;10.094;2022-10-18T11:09:53;16.70;92.30
7218;DHT22;3650;53.580;10.094;2022-10-18T11:12:25;16.70;92.10
7218;DHT22;3650;53.580;10.094;2022-10-18T11:14:58;16.70;92.40
7218;DHT22;3650;53.580;10.094;2022-10-18T11:17:31;16.70;91.60
7218;DHT22;3650;53.580;10.094;2022-10-18T11:20:12;16.60;90.70
7218;DHT22;3650;53.580;10.094;2022-10-18T11:22:45;16.50;89.90
7218;DHT22;3650;53.580;10.094;2022-10-18T11:25:15;16.50;89.90
7218;DHT22;3650;53.580;10.094;2022-10-18T11:27:45;16.50;90.00
7218;DHT22;3650;53.580;10.094;2022-10-18T11:30:36;16.50;89.90
7218;DHT22;3650;53.580;10.094;2022-10-18T11:33:16;16.50;88.50
7218;DHT22;3650;53.580;10.094;2022-10-18T11:35:50;16.40;88.30
7218;DHT22;3650;53.580;10.094;2022-10-18T11:38:24;16.40;89.80
7218;DHT22;3650;53.580;10.094;2022-10-18T11:41:15;16.40;89.80
7218;DHT22;3650;53.580;10.094;2022-10-18T11:43:50;16.40;90.00
7218;DHT22;3650;53.580;10.094;2022-10-18T11:46:24;16.40;89.80
7218;DHT22;3650;53.580;10.094;2022-10-18T11:49:15;16.40;88.60
7218;DHT22;3650;53.580;10.094;2022-10-18T11:51:55;16.30;88.40
7218;DHT22;3650;53.580;10.094;2022-10-18T11:54:46;16.40;89.80
7218;DHT22;3650;53.580;10.094;2022-10-18T11:57:30;16.40;90.50
7218;DHT22;3650;53.580;10.094;2022-10-18T12:00:13;16.40;87.90
7218;DHT22;3650;53.580;10.094;2022-10-18T12:02:53;16.50;84.40
7218;DHT22;3650;53.580;10.094;2022-10-18T12:05:21;16.50;83.40
7218;DHT22;3650;53.580;10.094;2022-10-18T12:07:53;16.50;83.60
7218;DHT22;3650;53.580;10.094;2022-10-18T12:10:22;16.50;84.00
7218;DHT22;3650;53.580;10.094;2022-10-18T12:12:54;16.50;81.50
7218;DHT22;3650;53.580;10.094;2022-10-18T12:15:24;16.50;82.40
7218;DHT22;3650;53.580;10.094;2022-10-18T12:17:54;16.50;83.20
7218;DHT22;3650;53.580;10.094;2022-10-18T12:20:25;16.50;85.50
7218;DHT22;3650;53.580;10.094;2022-10-18T12:22:57;16.50;83.90
7218;DHT22;3650;53.580;10.094;2022-10-18T12:25:26;16.60;83.70
7218;DHT22;3650;53.580;10.094;2022-10-18T12:27:58;16.60;82.50
7218;DHT22;3650;53.580;10.094;2022-10-18T12:30:31;16.50;80.30
7218;DHT22;3650;53.580;10.094;2022-10-18T12:33:06;16.50;78.50
7218;DHT22;3650;53.580;10.094;2022-10-18T12:35:43;16.50;77.30
7218;DHT22;3650;53.580;10.094;2022-10-18T12:38:18;16.50;75.30
7218;DHT22;3650;53.580;10.094;2022-10-18T12:40:48;16.50;75.40
7218;DHT22;3650;53.580;10.094;2022-10-18T12:43:21;16.50;74.90
7218;DHT22;3650;53.580;10.094;2022-10-18T12:45:52;16.60;75.00
7218;DHT22;3650;53.580;10.094;2022-10-18T12:48:34;16.60;74.30
7218;DHT22;3650;53.580;10.094;2022-10-18T12:51:06;16.60;70.80
7218;DHT22;3650;53.580;10.094;2022-10-18T12:53:38;16.70;70.50
7218;DHT22;3650;53.580;10.094;2022-10-18T12:56:33;16.70;66.70
7218;DHT22;3650;53.580;10.094;2022-10-18T13:02:26;16.80;67.70
7218;DHT22;3650;53.580;10.094;2022-10-18T13:04:54;16.80;66.40
7218;DHT22;3650;53.580;10.094;2022-10-18T13:07:34;16.80;67.70
7218;DHT22;3650;53.580;10.094;2022-10-18T13:10:38;16.80;68.20
7218;DHT22;3650;53.580;10.094;2022-10-18T13:13:36;16.80;69.90
7218;DHT22;3650;53.580;10.094;2022-10-18T13:16:23;16.80;69.80
7218;DHT22;3650;53.580;10.094;2022-10-18T13:18:56;16.80;67.70
7218;DHT22;3650;53.580;10.094;2022-10-18T13:21:38;16.80;68.80
7218;DHT22;3650;53.580;10.094;2022-10-18T13:24:27;16.90;68.30
7218;DHT22;3650;53.580;10.094;2022-10-18T13:27:23;16.90;70.50
7218;DHT22;3650;53.580;10.094;2022-10-18T13:30:37;16.90;71.80
7218;DHT22;3650;53.580;10.094;2022-10-18T13:33:18;17.00;71.80
7218;DHT22;3650;53.580;10.094;2022-10-18T13:35:53;17.00;70.90
7218;DHT22;3650;53.580;10.094;2022-10-18T13:38:39;16.90;70.60
7218;DHT22;3650;53.580;10.094;2022-10-18T13:41:11;16.90;71.20
7218;DHT22;3650;53.580;10.094;2022-10-18T13:43:58;16.90;71.80
7218;DHT22;3650;53.580;10.094;2022-10-18T13:49:32;16.90;71.40
7218;DHT22;3650;53.580;10.094;2022-10-18T13:52:07;16.90;70.20
7218;DHT22;3650;53.580;10.094;2022-10-18T13:54:58;16.90;68.70
7218;DHT22;3650;53.580;10.094;2022-10-18T13:57:44;16.90;68.60
7218;DHT22;3650;53.580;10.094;2022-10-18T14:00:46;16.90;68.80
7218;DHT22;3650;53.580;10.094;2022-10-18T14:03:37;16.90;68.70
7218;DHT22;3650;53.580;10.094;2022-10-18T14:06:08;16.90;68.00
7218;DHT22;3650;53.580;10.094;2022-10-18T14:08:41;16.90;67.90
7218;DHT22;3650;53.580;10.094;2022-10-18T14:11:17;16.90;65.80
7218;DHT22;3650;53.580;10.094;2022-10-18T14:13:53;16.90;65.10
7218;DHT22;3650;53.580;10.094;2022-10-18T14:16:35;16.90;66.20
7218;DHT22;3650;53.580;10.094;2022-10-18T14:19:29;16.90;66.50
7218;DHT22;3650;53.580;10.094;2022-10-18T14:22:09;16.90;67.80
7218;DHT22;3650;53.580;10.094;2022-10-18T14:24:43;16.90;67.80
7218;DHT22;3650;53.580;10.094;2022-10-18T14:27:15;16.90;67.80
7218;DHT22;3650;53.580;10.094;2022-10-18T14:29:43;16.90;67.80
7218;DHT22;3650;53.580;10.094;2022-10-18T14:32:21;16.90;67.80
7218;DHT22;3650;53.580;10.094;2022-10-18T14:34:50;16.90;67.80
7218;DHT22;3650;53.580;10.094;2022-10-18T14:37:24;17.00;67.90
7218;DHT22;3650;53.580;10.094;2022-10-18T14:39:54;16.80;67.80
7218;DHT22;3650;53.580;10.094;2022-10-18T14:42:23;16.90;69.10
7218;DHT22;3650;53.580;10.094;2022-10-18T14:44:51;16.80;69.50
7218;DHT22;3650;53.580;10.094;2022-10-18T14:47:21;16.80;68.90
7218;DHT22;3650;53.580;10.094;2022-10-18T14:49:48;16.70;70.60
7218;DHT22;3650;53.580;10.094;2022-10-18T14:52:17;16.70;71.50
7218;DHT22;3650;53.580;10.094;2022-10-18T14:54:45;16.60;71.30
7218;DHT22;3650;53.580;10.094;2022-10-18T14:57:18;16.50;70.50
7218;DHT22;3650;53.580;10.094;2022-10-18T14:59:47;16.50;71.70
7218;DHT22;3650;53.580;10.094;2022-10-18T15:02:20;16.50;70.60
7218;DHT22;3650;53.580;10.094;2022-10-18T15:04:54;16.50;70.00
7218;DHT22;3650;53.580;10.094;2022-10-18T15:07:22;16.50;72.00
7218;DHT22;3650;53.580;10.094;2022-10-18T15:09:50;16.50;70.90
7218;DHT22;3650;53.580;10.094;2022-10-18T15:12:18;16.50;71.20
7218;DHT22;3650;53.580;10.094;2022-10-18T15:14:45;16.60;72.30
7218;DHT22;3650;53.580;10.094;2022-10-18T15:17:15;16.60;73.60
7218;DHT22;3650;53.580;10.094;2022-10-18T15:19:54;16.60;74.40
7218;DHT22;3650;53.580;10.094;2022-10-18T15:22:23;16.60;74.50
7218;DHT22;3650;53.580;10.094;2022-10-18T15:25:10;16.60;74.50
7218;DHT22;3650;53.580;10.094;2022-10-18T15:27:39;16.50;72.50
7218;DHT22;3650;53.580;10.094;2022-10-18T15:30:07;16.50;71.30
7218;DHT22;3650;53.580;10.094;2022-10-18T15:32:35;16.50;71.80
7218;DHT22;3650;53.580;10.094;2022-10-18T15:35:07;16.50;71.30
7218;DHT22;3650;53.580;10.094;2022-10-18T15:37:37;16.50;71.30
7218;DHT22;3650;53.580;10.094;2022-10-18T15:40:34;16.40;71.30
7218;DHT22;3650;53.580;10.094;2022-10-18T15:45:48;16.40;71.60
7218;DHT22;3650;53.580;10.094;2022-10-18T15:48:19;16.30;72.10
7218;DHT22;3650;53.580;10.094;2022-10-18T15:50:48;16.30;72.60
7218;DHT22;3650;53.580;10.094;2022-10-18T15:53:32;16.30;73.00
7218;DHT22;3650;53.580;10.094;2022-10-18T15:56:01;16.20;72.80
7218;DHT22;3650;53.580;10.094;2022-10-18T15:58:37;16.20;72.70
7218;DHT22;3650;53.580;10.094;2022-10-18T16:01:07;16.20;72.90
7218;DHT22;3650;53.580;10.094;2022-10-18T16:03:39;16.20;73.50
7218;DHT22;3650;53.580;10.094;2022-10-18T16:06:08;16.20;73.10
7218;DHT22;3650;53.580;10.094;2022-10-18T16:08:37;16.20;73.50
7218;DHT22;3650;53.580;10.094;2022-10-18T16:11:05;16.20;73.70
7218;DHT22;3650;53.580;10.094;2022-10-18T16:13:34;16.20;72.70
7218;DHT22;3650;53.580;10.094;2022-10-18T16:16:00;16.20;72.20
7218;DHT22;3650;53.580;10.094;2022-10-18T16:18:27;16.20;71.70
7218;DHT22;3650;53.580;10.094;2022-10-18T16:20:54;16.20;71.20
7218;DHT22;3650;53.580;10.094;2022-10-18T16:23:22;16.20;70.30
7218;DHT22;3650;53.580;10.094;2022-10-18T16:25:50;16.20;70.10